sensor_id;sensor_type;location;lat;lon;timestamp;P1;durP1;ratioP1;P2;durP2;ratioP2
37288;SDS011;23174;49.462;11.000;2023-01-24T00:00:51;7.35;;;6.75;;
37288;SDS011;23174;49.462;11.000;2023-01-24T00:02:52;7.90;;;7.20;;
37288;SDS011;23174;49.462;11.000;2023-01-24T00:04:53;7.28;;;6.65;;
37288;SDS011;23174;49.462;11.000;2023-01-24T00:06:54;7.03;;;6.53;;
37288;SDS011;23174;49.462;11.000;2023-01-24T00:08:54;7.55;;;6.95;;
37288;SDS011;23174;49.462;11.000;2023-01-24T00:11:02;8.25;;;6.65;;
37288;SDS011;23174;49.462;11.000;2023-01-24T00:13:04;6.20;;;5.60;;
37288;SDS011;23174;49.462;11.000;2023-01-24T00:15:05;7.50;;;6.88;;
37288;SDS011;23174;49.462;11.000;2023-01-24T00:17:06;7.40;;;6.70;;
37288;SDS011;23174;49.462;11.000;2023-01-24T00:19:09;7.57;;;6.93;;
37288;SDS011;23174;49.462;11.000;2023-01-24T00:21:11;7.35;;;6.75;;
37288;SDS011;23174;49.462;11.000;2023-01-24T00:23:14;7.38;;;6.78;;
37288;SDS011;23174;49.462;11.000;2023-01-24T00:25:15;7.82;;;6.35;;
37288;SDS011;23174;49.462;11.000;2023-01-24T00:27:15;7.68;;;6.97;;
37288;SDS011;23174;49.462;11.000;2023-01-24T00:29:17;7.55;;;6.88;;
37288;SDS011;23174;49.462;11.000;2023-01-24T00:31:18;6.72;;;6.13;;
37288;SDS011;23174;49.462;11.000;2023-01-24T00:33:19;6.40;;;5.90;;
37288;SDS011;23174;49.462;11.000;2023-01-24T00:35:19;6.75;;;6.20;;
37288;SDS011;23174;49.462;11.000;2023-01-24T00:37:20;7.22;;;6.53;;
37288;SDS011;23174;49.462;11.000;2023-01-24T00:39:20;7.13;;;6.40;;
37288;SDS011;23174;49.462;11.000;2023-01-24T00:41:21;8.52;;;6.38;;
37288;SDS011;23174;49.462;11.000;2023-01-24T00:43:22;6.28;;;5.78;;
37288;SDS011;23174;49.462;11.000;2023-01-24T00:45:22;7.20;;;6.60;;
37288;SDS011;23174;49.462;11.000;2023-01-24T00:47:24;7.38;;;6.53;;
37288;SDS011;23174;49.462;11.000;2023-01-24T00:49:24;7.20;;;6.60;;
37288;SDS011;23174;49.462;11.000;2023-01-24T00:51:25;6.95;;;6.35;;
37288;SDS011;23174;49.462;11.000;2023-01-24T00:53:26;6.18;;;5.68;;
37288;SDS011;23174;49.462;11.000;2023-01-24T00:55:27;6.35;;;5.75;;
37288;SDS011;23174;49.462;11.000;2023-01-24T00:57:28;7.05;;;6.43;;
37288;SDS011;23174;49.462;11.000;2023-01-24T00:59:28;7.00;;;6.40;;
37288;SDS011;23174;49.462;11.000;2023-01-24T01:01:29;6.35;;;5.82;;
37288;SDS011;23174;49.462;11.000;2023-01-24T01:03:30;6.88;;;6.28;;
37288;SDS011;23174;49.462;11.000;2023-01-24T01:05:30;7.38;;;6.78;;
37288;SDS011;23174;49.462;11.000;2023-01-24T01:07:31;7.03;;;6.43;;
37288;SDS011;23174;49.462;11.000;2023-01-24T01:09:32;7.30;;;6.55;;
37288;SDS011;23174;49.462;11.000;2023-01-24T01:11:33;6.85;;;6.25;;
37288;SDS011;23174;49.462;11.000;2023-01-24T01:13:33;6.50;;;6.00;;
37288;SDS011;23174;49.462;11.000;2023-01-24T01:15:34;7.00;;;6.30;;
37288;SDS011;23174;49.462;11.000;2023-01-24T01:17:34;7.78;;;7.07;;
37288;SDS011;23174;49.462;11.000;2023-01-24T01:19:35;6.97;;;6.38;;
37288;SDS011;23174;49.462;11.000;2023-01-24T01:21:35;7.38;;;6.72;;
37288;SDS011;23174;49.462;11.000;2023-01-24T01:23:36;6.68;;;6.07;;
37288;SDS011;23174;49.462;11.000;2023-01-24T01:25:37;7.07;;;6.45;;
37288;SDS011;23174;49.462;11.000;2023-01-24T01:27:38;8.00;;;7.22;;
37288;SDS011;23174;49.462;11.000;2023-01-24T01:29:39;8.13;;;7.32;;
37288;SDS011;23174;49.462;11.000;2023-01-24T01:31:40;7.38;;;6.78;;
37288;SDS011;23174;49.462;11.000;2023-01-24T01:33:41;7.22;;;6.43;;
37288;SDS011;23174;49.462;11.000;2023-01-24T01:35:43;7.60;;;6.90;;
37288;SDS011;23174;49.462;11.000;2023-01-24T01:37:43;7.22;;;6.53;;
37288;SDS011;23174;49.462;11.000;2023-01-24T01:39:44;7.78;;;7.07;;
37288;SDS011;23174;49.462;11.000;2023-01-24T01:41:44;7.63;;;6.90;;
37288;SDS011;23174;49.462;11.000;2023-01-24T01:43:45;7.00;;;6.30;;
37288;SDS011;23174;49.462;11.000;2023-01-24T01:46:07;7.20;;;6.50;;
37288;SDS011;23174;49.462;11.000;2023-01-24T01:48:21;8.23;;;7.35;;
37288;SDS011;23174;49.462;11.000;2023-01-24T01:50:26;7.47;;;6.82;;
37288;SDS011;23174;49.462;11.000;2023-01-24T01:52:37;11.25;;;7.03;;
37288;SDS011;23174;49.462;11.000;2023-01-24T01:54:40;7.20;;;6.55;;
37288;SDS011;23174;49.462;11.000;2023-01-24T01:58:57;6.95;;;6.35;;
37288;SDS011;23174;49.462;11.000;2023-01-24T02:01:02;7.22;;;6.53;;
37288;SDS011;23174;49.462;11.000;2023-01-24T02:03:05;7.15;;;6.53;;
37288;SDS011;23174;49.462;11.000;2023-01-24T02:05:29;7.18;;;6.57;;
37288;SDS011;23174;49.462;11.000;2023-01-24T02:09:37;7.07;;;6.47;;
37288;SDS011;23174;49.462;11.000;2023-01-24T02:11:40;7.13;;;6.50;;
37288;SDS011;23174;49.462;11.000;2023-01-24T02:13:41;7.30;;;6.35;;
37288;SDS011;23174;49.462;11.000;2023-01-24T02:15:43;7.13;;;6.53;;
37288;SDS011;23174;49.462;11.000;2023-01-24T02:18:04;7.10;;;6.50;;
37288;SDS011;23174;49.462;11.000;2023-01-24T02:22:34;7.40;;;6.78;;
37288;SDS011;23174;49.462;11.000;2023-01-24T02:24:45;6.38;;;5.88;;
37288;SDS011;23174;49.462;11.000;2023-01-24T02:26:53;6.53;;;5.93;;
37288;SDS011;23174;49.462;11.000;2023-01-24T02:31:03;6.60;;;6.00;;
37288;SDS011;23174;49.462;11.000;2023-01-24T02:33:12;6.65;;;6.05;;
37288;SDS011;23174;49.462;11.000;2023-01-24T02:35:24;6.80;;;6.20;;
37288;SDS011;23174;49.462;11.000;2023-01-24T02:37:27;7.55;;;6.93;;
37288;SDS011;23174;49.462;11.000;2023-01-24T02:39:29;6.45;;;5.85;;
37288;SDS011;23174;49.462;11.000;2023-01-24T02:41:43;6.60;;;6.00;;
37288;SDS011;23174;49.462;11.000;2023-01-24T02:43:48;6.10;;;5.60;;
37288;SDS011;23174;49.462;11.000;2023-01-24T02:45:51;6.05;;;5.55;;
37288;SDS011;23174;49.462;11.000;2023-01-24T02:47:52;6.18;;;5.57;;
37288;SDS011;23174;49.462;11.000;2023-01-24T02:49:54;5.57;;;5.07;;
37288;SDS011;23174;49.462;11.000;2023-01-24T02:51:54;6.25;;;5.65;;
37288;SDS011;23174;49.462;11.000;2023-01-24T02:54:13;7.32;;;5.85;;
37288;SDS011;23174;49.462;11.000;2023-01-24T02:56:14;5.28;;;4.88;;
37288;SDS011;23174;49.462;11.000;2023-01-24T02:58:53;6.28;;;5.72;;
37288;SDS011;23174;49.462;11.000;2023-01-24T03:00:53;5.88;;;5.38;;
37288;SDS011;23174;49.462;11.000;2023-01-24T03:02:54;5.30;;;4.80;;
37288;SDS011;23174;49.462;11.000;2023-01-24T03:04:54;6.00;;;5.40;;
37288;SDS011;23174;49.462;11.000;2023-01-24T03:06:55;6.50;;;5.90;;
37288;SDS011;23174;49.462;11.000;2023-01-24T03:08:55;6.22;;;5.60;;
37288;SDS011;23174;49.462;11.000;2023-01-24T03:10:56;5.22;;;4.72;;
37288;SDS011;23174;49.462;11.000;2023-01-24T03:12:57;5.30;;;4.90;;
37288;SDS011;23174;49.462;11.000;2023-01-24T03:15:16;6.25;;;5.70;;
37288;SDS011;23174;49.462;11.000;2023-01-24T03:17:35;6.40;;;5.55;;
37288;SDS011;23174;49.462;11.000;2023-01-24T03:19:54;6.13;;;5.53;;
37288;SDS011;23174;49.462;11.000;2023-01-24T03:22:13;5.22;;;4.72;;
37288;SDS011;23174;49.462;11.000;2023-01-24T03:24:32;5.20;;;4.80;;
37288;SDS011;23174;49.462;11.000;2023-01-24T03:26:51;4.60;;;4.30;;
37288;SDS011;23174;49.462;11.000;2023-01-24T03:29:10;4.80;;;4.40;;
37288;SDS011;23174;49.462;11.000;2023-01-24T03:31:30;4.90;;;4.50;;
37288;SDS011;23174;49.462;11.000;2023-01-24T03:33:49;5.82;;;5.10;;
37288;SDS011;23174;49.462;11.000;2023-01-24T03:36:08;4.93;;;4.53;;
37288;SDS011;23174;49.462;11.000;2023-01-24T03:38:13;4.93;;;4.53;;
37288;SDS011;23174;49.462;11.000;2023-01-24T03:40:32;4.72;;;4.18;;
37288;SDS011;23174;49.462;11.000;2023-01-24T03:42:33;5.80;;;5.25;;
37288;SDS011;23174;49.462;11.000;2023-01-24T03:44:34;4.97;;;4.57;;
37288;SDS011;23174;49.462;11.000;2023-01-24T03:46:35;7.28;;;5.00;;
37288;SDS011;23174;49.462;11.000;2023-01-24T03:48:39;5.20;;;4.80;;
37288;SDS011;23174;49.462;11.000;2023-01-24T03:50:41;5.22;;;4.80;;
37288;SDS011;23174;49.462;11.000;2023-01-24T03:53:04;6.10;;;5.50;;
37288;SDS011;23174;49.462;11.000;2023-01-24T03:55:05;5.60;;;5.10;;
37288;SDS011;23174;49.462;11.000;2023-01-24T03:57:08;6.07;;;5.57;;
37288;SDS011;23174;49.462;11.000;2023-01-24T03:59:08;7.47;;;5.90;;
37288;SDS011;23174;49.462;11.000;2023-01-24T04:01:09;5.57;;;5.07;;
37288;SDS011;23174;49.462;11.000;2023-01-24T04:03:09;5.82;;;5.22;;
37288;SDS011;23174;49.462;11.000;2023-01-24T04:05:10;5.82;;;5.32;;
37288;SDS011;23174;49.462;11.000;2023-01-24T04:07:13;6.18;;;5.57;;
37288;SDS011;23174;49.462;11.000;2023-01-24T04:09:14;6.18;;;5.68;;
37288;SDS011;23174;49.462;11.000;2023-01-24T04:11:15;5.55;;;5.15;;
37288;SDS011;23174;49.462;11.000;2023-01-24T04:13:15;5.30;;;4.80;;
37288;SDS011;23174;49.462;11.000;2023-01-24T04:15:17;5.07;;;4.72;;
37288;SDS011;23174;49.462;11.000;2023-01-24T04:17:20;5.35;;;4.95;;
37288;SDS011;23174;49.462;11.000;2023-01-24T04:19:20;5.45;;;4.95;;
37288;SDS011;23174;49.462;11.000;2023-01-24T04:21:21;4.90;;;4.50;;
37288;SDS011;23174;49.462;11.000;2023-01-24T04:23:21;5.90;;;5.38;;
37288;SDS011;23174;49.462;11.000;2023-01-24T04:25:22;6.20;;;5.60;;
37288;SDS011;23174;49.462;11.000;2023-01-24T04:27:22;5.95;;;5.45;;
37288;SDS011;23174;49.462;11.000;2023-01-24T04:29:23;5.30;;;4.80;;
37288;SDS011;23174;49.462;11.000;2023-01-24T04:31:24;5.47;;;5.07;;
37288;SDS011;23174;49.462;11.000;2023-01-24T04:33:24;5.40;;;4.97;;
37288;SDS011;23174;49.462;11.000;2023-01-24T04:35:27;5.38;;;4.93;;
37288;SDS011;23174;49.462;11.000;2023-01-24T04:37:29;4.93;;;4.53;;
37288;SDS011;23174;49.462;11.000;2023-01-24T04:39:31;5.25;;;4.75;;
37288;SDS011;23174;49.462;11.000;2023-01-24T04:41:31;4.45;;;4.15;;
37288;SDS011;23174;49.462;11.000;2023-01-24T04:43:32;4.20;;;3.90;;
37288;SDS011;23174;49.462;11.000;2023-01-24T04:45:32;4.80;;;4.40;;
37288;SDS011;23174;49.462;11.000;2023-01-24T04:47:33;4.15;;;3.75;;
37288;SDS011;23174;49.462;11.000;2023-01-24T04:49:33;3.95;;;3.65;;
37288;SDS011;23174;49.462;11.000;2023-01-24T04:51:34;4.32;;;4.03;;
37288;SDS011;23174;49.462;11.000;2023-01-24T04:53:37;4.97;;;4.57;;
37288;SDS011;23174;49.462;11.000;2023-01-24T04:55:38;4.68;;;4.28;;
37288;SDS011;23174;49.462;11.000;2023-01-24T04:57:39;4.47;;;4.18;;
37288;SDS011;23174;49.462;11.000;2023-01-24T04:59:39;4.47;;;4.07;;
37288;SDS011;23174;49.462;11.000;2023-01-24T05:01:40;4.95;;;4.55;;
37288;SDS011;23174;49.462;11.000;2023-01-24T05:03:41;4.90;;;4.05;;
37288;SDS011;23174;49.462;11.000;2023-01-24T05:05:41;4.30;;;3.90;;
37288;SDS011;23174;49.462;11.000;2023-01-24T05:07:42;3.88;;;3.58;;
37288;SDS011;23174;49.462;11.000;2023-01-24T05:09:42;3.80;;;3.50;;
37288;SDS011;23174;49.462;11.000;2023-01-24T05:11:43;3.60;;;3.38;;
37288;SDS011;23174;49.462;11.000;2023-01-24T05:13:43;3.72;;;3.47;;
37288;SDS011;23174;49.462;11.000;2023-01-24T05:15:49;3.83;;;3.45;;
37288;SDS011;23174;49.462;11.000;2023-01-24T05:17:50;4.13;;;3.72;;
37288;SDS011;23174;49.462;11.000;2023-01-24T05:19:51;3.88;;;3.58;;
37288;SDS011;23174;49.462;11.000;2023-01-24T05:21:52;3.55;;;3.35;;
37288;SDS011;23174;49.462;11.000;2023-01-24T05:23:52;3.67;;;3.25;;
37288;SDS011;23174;49.462;11.000;2023-01-24T05:25:57;3.45;;;3.25;;
37288;SDS011;23174;49.462;11.000;2023-01-24T05:27:58;3.38;;;3.17;;
37288;SDS011;23174;49.462;11.000;2023-01-24T05:29:59;3.80;;;3.42;;
37288;SDS011;23174;49.462;11.000;2023-01-24T05:31:59;3.88;;;3.58;;
37288;SDS011;23174;49.462;11.000;2023-01-24T05:34:00;3.63;;;3.33;;
37288;SDS011;23174;49.462;11.000;2023-01-24T05:36:01;3.88;;;3.50;;
37288;SDS011;23174;49.462;11.000;2023-01-24T05:38:04;3.45;;;3.15;;
37288;SDS011;23174;49.462;11.000;2023-01-24T05:40:05;3.25;;;3.05;;
37288;SDS011;23174;49.462;11.000;2023-01-24T05:42:06;3.20;;;2.88;;
37288;SDS011;23174;49.462;11.000;2023-01-24T05:44:07;3.28;;;3.03;;
37288;SDS011;23174;49.462;11.000;2023-01-24T05:46:12;3.70;;;3.40;;
37288;SDS011;23174;49.462;11.000;2023-01-24T05:48:15;3.33;;;2.95;;
37288;SDS011;23174;49.462;11.000;2023-01-24T05:50:15;3.03;;;2.83;;
37288;SDS011;23174;49.462;11.000;2023-01-24T05:52:16;3.47;;;3.20;;
37288;SDS011;23174;49.462;11.000;2023-01-24T05:54:21;3.30;;;3.10;;
37288;SDS011;23174;49.462;11.000;2023-01-24T05:56:21;3.90;;;3.53;;
37288;SDS011;23174;49.462;11.000;2023-01-24T05:58:22;3.08;;;2.88;;
37288;SDS011;23174;49.462;11.000;2023-01-24T06:00:23;2.80;;;2.60;;
37288;SDS011;23174;49.462;11.000;2023-01-24T06:02:23;3.25;;;2.95;;
37288;SDS011;23174;49.462;11.000;2023-01-24T06:04:24;3.60;;;3.30;;
37288;SDS011;23174;49.462;11.000;2023-01-24T06:06:25;3.33;;;3.03;;
37288;SDS011;23174;49.462;11.000;2023-01-24T06:08:25;2.70;;;2.50;;
37288;SDS011;23174;49.462;11.000;2023-01-24T06:10:26;2.63;;;2.53;;
37288;SDS011;23174;49.462;11.000;2023-01-24T06:12:26;3.10;;;2.90;;
37288;SDS011;23174;49.462;11.000;2023-01-24T06:14:27;3.90;;;3.05;;
37288;SDS011;23174;49.462;11.000;2023-01-24T06:16:27;3.42;;;3.13;;
37288;SDS011;23174;49.462;11.000;2023-01-24T06:18:28;3.05;;;2.85;;
37288;SDS011;23174;49.462;11.000;2023-01-24T06:20:29;3.28;;;3.08;;
37288;SDS011;23174;49.462;11.000;2023-01-24T06:22:43;2.65;;;2.45;;
37288;SDS011;23174;49.462;11.000;2023-01-24T06:24:47;3.15;;;2.67;;
37288;SDS011;23174;49.462;11.000;2023-01-24T06:26:48;3.40;;;3.20;;
37288;SDS011;23174;49.462;11.000;2023-01-24T06:28:49;3.45;;;3.15;;
37288;SDS011;23174;49.462;11.000;2023-01-24T06:30:53;3.47;;;3.17;;
37288;SDS011;23174;49.462;11.000;2023-01-24T06:33:23;3.35;;;3.05;;
37288;SDS011;23174;49.462;11.000;2023-01-24T06:37:50;3.60;;;3.30;;
37288;SDS011;23174;49.462;11.000;2023-01-24T06:39:52;3.58;;;3.30;;
37288;SDS011;23174;49.462;11.000;2023-01-24T06:41:53;3.13;;;2.90;;
37288;SDS011;23174;49.462;11.000;2023-01-24T06:43:54;3.35;;;2.72;;
37288;SDS011;23174;49.462;11.000;2023-01-24T06:45:55;3.30;;;3.10;;
37288;SDS011;23174;49.462;11.000;2023-01-24T06:47:56;3.75;;;3.45;;
37288;SDS011;23174;49.462;11.000;2023-01-24T06:49:57;3.80;;;3.50;;
37288;SDS011;23174;49.462;11.000;2023-01-24T06:51:57;3.72;;;3.40;;
37288;SDS011;23174;49.462;11.000;2023-01-24T06:53:58;2.97;;;2.75;;
37288;SDS011;23174;49.462;11.000;2023-01-24T06:55:59;3.72;;;3.42;;
37288;SDS011;23174;49.462;11.000;2023-01-24T06:58:00;3.00;;;2.80;;
37288;SDS011;23174;49.462;11.000;2023-01-24T07:00:03;3.05;;;2.72;;
37288;SDS011;23174;49.462;11.000;2023-01-24T07:02:05;3.33;;;3.13;;
37288;SDS011;23174;49.462;11.000;2023-01-24T07:04:05;3.55;;;3.25;;
37288;SDS011;23174;49.462;11.000;2023-01-24T07:06:06;3.25;;;2.95;;
37288;SDS011;23174;49.462;11.000;2023-01-24T07:08:06;3.83;;;3.53;;
37288;SDS011;23174;49.462;11.000;2023-01-24T07:10:07;3.13;;;2.92;;
37288;SDS011;23174;49.462;11.000;2023-01-24T07:12:09;3.22;;;2.90;;
37288;SDS011;23174;49.462;11.000;2023-01-24T07:14:09;3.15;;;2.95;;
37288;SDS011;23174;49.462;11.000;2023-01-24T07:16:10;3.08;;;2.78;;
37288;SDS011;23174;49.462;11.000;2023-01-24T07:18:11;3.90;;;3.50;;
37288;SDS011;23174;49.462;11.000;2023-01-24T07:20:12;3.17;;;2.97;;
37288;SDS011;23174;49.462;11.000;2023-01-24T07:22:13;3.00;;;2.80;;
37288;SDS011;23174;49.462;11.000;2023-01-24T07:24:18;3.50;;;3.17;;
37288;SDS011;23174;49.462;11.000;2023-01-24T07:26:21;3.35;;;3.00;;
37288;SDS011;23174;49.462;11.000;2023-01-24T07:28:22;3.30;;;3.00;;
37288;SDS011;23174;49.462;11.000;2023-01-24T07:30:22;4.43;;;3.17;;
37288;SDS011;23174;49.462;11.000;2023-01-24T07:32:23;3.40;;;3.10;;
37288;SDS011;23174;49.462;11.000;2023-01-24T07:34:23;3.30;;;3.10;;
37288;SDS011;23174;49.462;11.000;2023-01-24T07:36:24;3.47;;;3.17;;
37288;SDS011;23174;49.462;11.000;2023-01-24T07:38:24;3.60;;;3.20;;
37288;SDS011;23174;49.462;11.000;2023-01-24T07:40:25;3.22;;;2.80;;
37288;SDS011;23174;49.462;11.000;2023-01-24T07:42:26;2.88;;;2.67;;
37288;SDS011;23174;49.462;11.000;2023-01-24T07:44:26;3.80;;;3.25;;
37288;SDS011;23174;49.462;11.000;2023-01-24T07:46:27;3.20;;;2.95;;
37288;SDS011;23174;49.462;11.000;2023-01-24T07:48:27;5.07;;;2.60;;
37288;SDS011;23174;49.462;11.000;2023-01-24T07:50:28;2.45;;;2.30;;
37288;SDS011;23174;49.462;11.000;2023-01-24T07:52:30;3.15;;;2.90;;
37288;SDS011;23174;49.462;11.000;2023-01-24T07:54:31;2.60;;;2.40;;
37288;SDS011;23174;49.462;11.000;2023-01-24T07:56:31;3.38;;;3.10;;
37288;SDS011;23174;49.462;11.000;2023-01-24T07:58:32;3.17;;;2.88;;
37288;SDS011;23174;49.462;11.000;2023-01-24T08:00:32;3.70;;;3.40;;
37288;SDS011;23174;49.462;11.000;2023-01-24T08:02:33;5.25;;;3.35;;
37288;SDS011;23174;49.462;11.000;2023-01-24T08:04:34;4.00;;;3.70;;
37288;SDS011;23174;49.462;11.000;2023-01-24T08:06:34;3.75;;;3.45;;
37288;SDS011;23174;49.462;11.000;2023-01-24T08:08:35;2.90;;;2.70;;
37288;SDS011;23174;49.462;11.000;2023-01-24T08:10:36;3.10;;;2.90;;
37288;SDS011;23174;49.462;11.000;2023-01-24T08:12:36;3.00;;;2.80;;
37288;SDS011;23174;49.462;11.000;2023-01-24T08:14:37;4.22;;;3.05;;
37288;SDS011;23174;49.462;11.000;2023-01-24T08:16:37;2.47;;;2.28;;
37288;SDS011;23174;49.462;11.000;2023-01-24T08:18:38;3.28;;;2.70;;
37288;SDS011;23174;49.462;11.000;2023-01-24T08:20:40;2.55;;;2.35;;
37288;SDS011;23174;49.462;11.000;2023-01-24T08:22:41;2.78;;;2.58;;
37288;SDS011;23174;49.462;11.000;2023-01-24T08:24:42;3.45;;;2.92;;
37288;SDS011;23174;49.462;11.000;2023-01-24T08:26:42;3.10;;;2.80;;
37288;SDS011;23174;49.462;11.000;2023-01-24T08:28:46;2.78;;;2.58;;
37288;SDS011;23174;49.462;11.000;2023-01-24T08:30:46;2.80;;;2.60;;
37288;SDS011;23174;49.462;11.000;2023-01-24T08:32:47;3.03;;;2.80;;
37288;SDS011;23174;49.462;11.000;2023-01-24T08:34:47;2.92;;;2.72;;
37288;SDS011;23174;49.462;11.000;2023-01-24T08:36:48;3.05;;;2.85;;
37288;SDS011;23174;49.462;11.000;2023-01-24T08:38:49;3.22;;;2.92;;
37288;SDS011;23174;49.462;11.000;2023-01-24T08:40:49;3.17;;;2.97;;
37288;SDS011;23174;49.462;11.000;2023-01-24T08:42:50;3.30;;;2.75;;
37288;SDS011;23174;49.462;11.000;2023-01-24T08:44:51;3.17;;;2.88;;
37288;SDS011;23174;49.462;11.000;2023-01-24T08:46:51;3.10;;;2.90;;
37288;SDS011;23174;49.462;11.000;2023-01-24T08:48:52;2.30;;;2.20;;
37288;SDS011;23174;49.462;11.000;2023-01-24T08:50:52;2.85;;;2.65;;
37288;SDS011;23174;49.462;11.000;2023-01-24T08:52:54;3.50;;;3.20;;
37288;SDS011;23174;49.462;11.000;2023-01-24T08:54:55;2.42;;;2.22;;
37288;SDS011;23174;49.462;11.000;2023-01-24T08:56:56;2.67;;;2.47;;
37288;SDS011;23174;49.462;11.000;2023-01-24T08:58:57;3.53;;;3.22;;
37288;SDS011;23174;49.462;11.000;2023-01-24T09:00:57;3.47;;;2.63;;
37288;SDS011;23174;49.462;11.000;2023-01-24T09:02:58;2.85;;;2.65;;
37288;SDS011;23174;49.462;11.000;2023-01-24T09:05:00;2.78;;;2.55;;
37288;SDS011;23174;49.462;11.000;2023-01-24T09:07:00;3.22;;;3.03;;
37288;SDS011;23174;49.462;11.000;2023-01-24T09:09:01;3.17;;;2.90;;
37288;SDS011;23174;49.462;11.000;2023-01-24T09:11:03;3.00;;;2.80;;
37288;SDS011;23174;49.462;11.000;2023-01-24T09:13:04;3.15;;;2.95;;
37288;SDS011;23174;49.462;11.000;2023-01-24T09:15:05;3.22;;;2.90;;
37288;SDS011;23174;49.462;11.000;2023-01-24T09:17:07;3.85;;;3.20;;
37288;SDS011;23174;49.462;11.000;2023-01-24T09:19:09;3.95;;;3.15;;
37288;SDS011;23174;49.462;11.000;2023-01-24T09:21:11;3.15;;;2.95;;
37288;SDS011;23174;49.462;11.000;2023-01-24T09:23:12;3.75;;;3.47;;
37288;SDS011;23174;49.462;11.000;2023-01-24T09:25:14;3.05;;;2.85;;
37288;SDS011;23174;49.462;11.000;2023-01-24T09:27:15;3.45;;;3.15;;
37288;SDS011;23174;49.462;11.000;2023-01-24T09:29:15;3.10;;;2.70;;
37288;SDS011;23174;49.462;11.000;2023-01-24T09:31:16;3.13;;;2.90;;
37288;SDS011;23174;49.462;11.000;2023-01-24T09:33:17;2.67;;;2.42;;
37288;SDS011;23174;49.462;11.000;2023-01-24T09:35:18;3.33;;;2.58;;
37288;SDS011;23174;49.462;11.000;2023-01-24T09:37:18;3.13;;;2.90;;
37288;SDS011;23174;49.462;11.000;2023-01-24T09:39:20;3.47;;;3.17;;
37288;SDS011;23174;49.462;11.000;2023-01-24T09:44:00;3.40;;;3.10;;
37288;SDS011;23174;49.462;11.000;2023-01-24T09:46:15;3.88;;;3.58;;
37288;SDS011;23174;49.462;11.000;2023-01-24T09:48:35;3.10;;;2.88;;
37288;SDS011;23174;49.462;11.000;2023-01-24T09:50:49;2.83;;;2.63;;
37288;SDS011;23174;49.462;11.000;2023-01-24T09:52:53;3.03;;;2.83;;
37288;SDS011;23174;49.462;11.000;2023-01-24T09:57:10;3.20;;;2.90;;
37288;SDS011;23174;49.462;11.000;2023-01-24T10:01:28;3.42;;;3.13;;
37288;SDS011;23174;49.462;11.000;2023-01-24T10:03:29;3.65;;;3.20;;
37288;SDS011;23174;49.462;11.000;2023-01-24T10:05:32;3.58;;;3.28;;
37288;SDS011;23174;49.462;11.000;2023-01-24T10:16:46;3.15;;;2.95;;
37288;SDS011;23174;49.462;11.000;2023-01-24T10:23:50;7.75;;;3.72;;
37288;SDS011;23174;49.462;11.000;2023-01-24T10:25:58;3.88;;;3.58;;
37288;SDS011;23174;49.462;11.000;2023-01-24T10:28:08;3.40;;;3.10;;
37288;SDS011;23174;49.462;11.000;2023-01-24T10:30:26;2.88;;;2.65;;
37288;SDS011;23174;49.462;11.000;2023-01-24T10:32:34;3.63;;;3.33;;
37288;SDS011;23174;49.462;11.000;2023-01-24T10:34:56;3.50;;;3.20;;
37288;SDS011;23174;49.462;11.000;2023-01-24T10:39:13;3.47;;;3.20;;
37288;SDS011;23174;49.462;11.000;2023-01-24T10:41:19;4.53;;;3.17;;
37288;SDS011;23174;49.462;11.000;2023-01-24T10:43:25;3.85;;;3.33;;
37288;SDS011;23174;49.462;11.000;2023-01-24T10:47:55;11.73;;;6.03;;
37288;SDS011;23174;49.462;11.000;2023-01-24T10:50:00;4.45;;;4.00;;
37288;SDS011;23174;49.462;11.000;2023-01-24T10:52:07;4.07;;;3.33;;
37288;SDS011;23174;49.462;11.000;2023-01-24T10:54:20;7.50;;;3.20;;
37288;SDS011;23174;49.462;11.000;2023-01-24T10:56:22;4.10;;;3.72;;
37288;SDS011;23174;49.462;11.000;2023-01-24T10:58:26;3.35;;;3.05;;
37288;SDS011;23174;49.462;11.000;2023-01-24T11:00:33;4.90;;;3.80;;
37288;SDS011;23174;49.462;11.000;2023-01-24T11:02:34;3.67;;;3.20;;
37288;SDS011;23174;49.462;11.000;2023-01-24T11:04:36;4.53;;;3.70;;
37288;SDS011;23174;49.462;11.000;2023-01-24T11:06:37;4.22;;;3.58;;
37288;SDS011;23174;49.462;11.000;2023-01-24T11:08:38;5.13;;;4.00;;
37288;SDS011;23174;49.462;11.000;2023-01-24T11:10:39;4.65;;;3.10;;
37288;SDS011;23174;49.462;11.000;2023-01-24T11:12:46;3.47;;;3.17;;
37288;SDS011;23174;49.462;11.000;2023-01-24T11:14:48;4.43;;;3.75;;
37288;SDS011;23174;49.462;11.000;2023-01-24T11:16:51;4.93;;;3.55;;
37288;SDS011;23174;49.462;11.000;2023-01-24T11:19:01;11.98;;;6.53;;
37288;SDS011;23174;49.462;11.000;2023-01-24T11:21:05;3.97;;;3.60;;
37288;SDS011;23174;49.462;11.000;2023-01-24T11:23:17;3.70;;;3.40;;
37288;SDS011;23174;49.462;11.000;2023-01-24T11:25:25;8.82;;;4.95;;
37288;SDS011;23174;49.462;11.000;2023-01-24T11:27:25;4.68;;;4.15;;
37288;SDS011;23174;49.462;11.000;2023-01-24T11:29:26;8.50;;;4.03;;
37288;SDS011;23174;49.462;11.000;2023-01-24T11:31:32;5.20;;;4.00;;
37288;SDS011;23174;49.462;11.000;2023-01-24T11:36:12;9.60;;;3.83;;
37288;SDS011;23174;49.462;11.000;2023-01-24T11:38:35;5.68;;;3.70;;
37288;SDS011;23174;49.462;11.000;2023-01-24T11:40:42;4.55;;;3.20;;
37288;SDS011;23174;49.462;11.000;2023-01-24T11:47:33;3.92;;;3.35;;
37288;SDS011;23174;49.462;11.000;2023-01-24T11:52:22;2.85;;;2.65;;
37288;SDS011;23174;49.462;11.000;2023-01-24T11:57:01;4.25;;;3.95;;
37288;SDS011;23174;49.462;11.000;2023-01-24T12:01:40;4.25;;;3.85;;
37288;SDS011;23174;49.462;11.000;2023-01-24T12:08:35;3.40;;;3.10;;
37288;SDS011;23174;49.462;11.000;2023-01-24T12:20:26;3.70;;;3.30;;
37288;SDS011;23174;49.462;11.000;2023-01-24T12:22:48;3.42;;;3.13;;
37288;SDS011;23174;49.462;11.000;2023-01-24T12:25:17;3.88;;;3.40;;
37288;SDS011;23174;49.462;11.000;2023-01-24T12:27:24;4.55;;;4.15;;
37288;SDS011;23174;49.462;11.000;2023-01-24T12:29:28;4.18;;;3.78;;
37288;SDS011;23174;49.462;11.000;2023-01-24T12:31:52;4.05;;;3.65;;
37288;SDS011;23174;49.462;11.000;2023-01-24T12:34:25;3.80;;;3.50;;
37288;SDS011;23174;49.462;11.000;2023-01-24T12:37:35;5.18;;;3.63;;
37288;SDS011;23174;49.462;11.000;2023-01-24T12:39:20;3.78;;;3.47;;
37288;SDS011;23174;49.462;11.000;2023-01-24T12:41:30;5.35;;;3.78;;
37288;SDS011;23174;49.462;11.000;2023-01-24T12:45:45;3.95;;;3.55;;
37288;SDS011;23174;49.462;11.000;2023-01-24T12:52:30;5.32;;;4.22;;
37288;SDS011;23174;49.462;11.000;2023-01-24T12:54:41;4.35;;;3.95;;
37288;SDS011;23174;49.462;11.000;2023-01-24T12:58:59;16.90;;;6.28;;
37288;SDS011;23174;49.462;11.000;2023-01-24T13:03:44;7.63;;;4.25;;
37288;SDS011;23174;49.462;11.000;2023-01-24T13:13:23;4.68;;;4.22;;
37288;SDS011;23174;49.462;11.000;2023-01-24T13:16:11;4.93;;;4.43;;
37288;SDS011;23174;49.462;11.000;2023-01-24T13:18:40;6.70;;;5.22;;
37288;SDS011;23174;49.462;11.000;2023-01-24T13:20:44;4.72;;;4.32;;
37288;SDS011;23174;49.462;11.000;2023-01-24T13:31:49;5.00;;;4.32;;
37288;SDS011;23174;49.462;11.000;2023-01-24T13:34:18;5.30;;;4.45;;
37288;SDS011;23174;49.462;11.000;2023-01-24T13:36:33;5.63;;;5.13;;
37288;SDS011;23174;49.462;11.000;2023-01-24T13:38:38;5.47;;;4.90;;
37288;SDS011;23174;49.462;11.000;2023-01-24T13:40:41;4.90;;;4.45;;
37288;SDS011;23174;49.462;11.000;2023-01-24T13:43:49;5.25;;;4.25;;
37288;SDS011;23174;49.462;11.000;2023-01-24T13:45:48;6.93;;;5.25;;
37288;SDS011;23174;49.462;11.000;2023-01-24T13:47:50;4.93;;;4.53;;
37288;SDS011;23174;49.462;11.000;2023-01-24T13:51:54;4.75;;;4.35;;
37288;SDS011;23174;49.462;11.000;2023-01-24T13:54:00;5.68;;;5.07;;